sensor_id;sensor_type;location;lat;lon;timestamp;pressure;altitude;pressure_sealevel;temperature;humidity
21803;BME280;18591;47.080;22.214;2023-10-13T00:00:45;99821.03;;;17.56;51.68
21803;BME280;18591;47.080;22.214;2023-10-13T00:02:50;99833.06;;;17.52;51.96
21803;BME280;18591;47.080;22.214;2023-10-13T00:04:53;99827.94;;;17.47;52.55
21803;BME280;18591;47.080;22.214;2023-10-13T00:06:56;99832.59;;;17.45;52.76
21803;BME280;18591;47.080;22.214;2023-10-13T00:08:58;99835.03;;;17.50;52.29
21803;BME280;18591;47.080;22.214;2023-10-13T00:11:01;99828.88;;;17.46;52.63
21803;BME280;18591;47.080;22.214;2023-10-13T00:13:05;99817.06;;;17.47;52.40
21803;BME280;18591;47.080;22.214;2023-10-13T00:15:09;99825.31;;;17.46;52.50
21803;BME280;18591;47.080;22.214;2023-10-13T00:17:16;99821.72;;;17.45;52.79
21803;BME280;18591;47.080;22.214;2023-10-13T00:19:22;99825.03;;;17.50;52.41
21803;BME280;18591;47.080;22.214;2023-10-13T00:21:26;99822.66;;;17.44;52.63
21803;BME280;18591;47.080;22.214;2023-10-13T00:23:34;99826.97;;;17.48;52.75
21803;BME280;18591;47.080;22.214;2023-10-13T00:25:37;99821.53;;;17.48;52.62
21803;BME280;18591;47.080;22.214;2023-10-13T00:27:51;99824.31;;;17.47;52.87
21803;BME280;18591;47.080;22.214;2023-10-13T00:32:24;99823.25;;;17.49;52.54
21803;BME280;18591;47.080;22.214;2023-10-13T00:34:29;99825.88;;;17.51;52.46
21803;BME280;18591;47.080;22.214;2023-10-13T00:36:35;99825.22;;;17.47;52.51
21803;BME280;18591;47.080;22.214;2023-10-13T00:38:37;99830.66;;;17.47;52.61
21803;BME280;18591;47.080;22.214;2023-10-13T00:40:40;99827.03;;;17.47;52.40
21803;BME280;18591;47.080;22.214;2023-10-13T00:42:44;99825.03;;;17.50;52.78
21803;BME280;18591;47.080;22.214;2023-10-13T00:44:53;99814.91;;;17.38;52.33
21803;BME280;18591;47.080;22.214;2023-10-13T00:46:56;99823.66;;;17.43;52.70
21803;BME280;18591;47.080;22.214;2023-10-13T00:49:00;99819.94;;;17.44;53.26
21803;BME280;18591;47.080;22.214;2023-10-13T00:51:05;99820.84;;;17.45;53.04
21803;BME280;18591;47.080;22.214;2023-10-13T00:53:20;99825.50;;;17.42;53.10
21803;BME280;18591;47.080;22.214;2023-10-13T00:55:23;99829.28;;;17.40;53.35
21803;BME280;18591;47.080;22.214;2023-10-13T00:57:27;99826.38;;;17.43;52.89
21803;BME280;18591;47.080;22.214;2023-10-13T00:59:30;99825.31;;;17.46;52.53
21803;BME280;18591;47.080;22.214;2023-10-13T01:01:45;99814.84;;;17.39;52.99
21803;BME280;18591;47.080;22.214;2023-10-13T01:03:49;99802.13;;;17.40;53.03
21803;BME280;18591;47.080;22.214;2023-10-13T01:05:56;99818.50;;;17.38;53.10
21803;BME280;18591;47.080;22.214;2023-10-13T01:08:01;99815.91;;;17.37;52.71
21803;BME280;18591;47.080;22.214;2023-10-13T01:10:04;99822.06;;;17.39;52.54
21803;BME280;18591;47.080;22.214;2023-10-13T01:12:07;99823.94;;;17.38;52.71
21803;BME280;18591;47.080;22.214;2023-10-13T01:14:11;99821.41;;;17.35;52.56
21803;BME280;18591;47.080;22.214;2023-10-13T01:16:14;99819.56;;;17.36;53.05
21803;BME280;18591;47.080;22.214;2023-10-13T01:18:19;99819.69;;;17.34;53.42
21803;BME280;18591;47.080;22.214;2023-10-13T01:20:23;99813.66;;;17.29;53.40
21803;BME280;18591;47.080;22.214;2023-10-13T01:22:28;99804.81;;;17.26;53.88
21803;BME280;18591;47.080;22.214;2023-10-13T01:24:31;99817.31;;;17.28;54.27
21803;BME280;18591;47.080;22.214;2023-10-13T01:26:37;99814.59;;;17.28;53.71
21803;BME280;18591;47.080;22.214;2023-10-13T01:28:44;99818.19;;;17.29;53.82
21803;BME280;18591;47.080;22.214;2023-10-13T01:30:48;99815.47;;;17.29;53.96
21803;BME280;18591;47.080;22.214;2023-10-13T01:32:54;99808.03;;;17.32;53.49
21803;BME280;18591;47.080;22.214;2023-10-13T01:34:56;99804.31;;;17.33;53.60
21803;BME280;18591;47.080;22.214;2023-10-13T01:37:07;99801.34;;;17.38;53.79
21803;BME280;18591;47.080;22.214;2023-10-13T01:39:09;99806.84;;;17.36;53.83
21803;BME280;18591;47.080;22.214;2023-10-13T01:41:13;99805.38;;;17.31;54.33
21803;BME280;18591;47.080;22.214;2023-10-13T01:43:16;99799.59;;;17.37;54.25
21803;BME280;18591;47.080;22.214;2023-10-13T01:45:20;99809.69;;;17.35;54.11
21803;BME280;18591;47.080;22.214;2023-10-13T01:47:22;99817.81;;;17.35;54.74
21803;BME280;18591;47.080;22.214;2023-10-13T01:49:26;99815.97;;;17.35;54.87
21803;BME280;18591;47.080;22.214;2023-10-13T01:51:28;99813.34;;;17.34;54.80
21803;BME280;18591;47.080;22.214;2023-10-13T01:53:31;99805.78;;;17.25;55.16
21803;BME280;18591;47.080;22.214;2023-10-13T01:55:33;99803.53;;;17.31;55.61
21803;BME280;18591;47.080;22.214;2023-10-13T01:57:45;99811.69;;;17.31;54.90
21803;BME280;18591;47.080;22.214;2023-10-13T01:59:50;99815.84;;;17.23;55.74
21803;BME280;18591;47.080;22.214;2023-10-13T02:01:52;99808.22;;;17.29;55.65
21803;BME280;18591;47.080;22.214;2023-10-13T02:04:01;99788.31;;;17.29;55.85
21803;BME280;18591;47.080;22.214;2023-10-13T02:06:05;99784.94;;;17.25;56.21
21803;BME280;18591;47.080;22.214;2023-10-13T02:08:08;99773.78;;;17.30;56.21
21803;BME280;18591;47.080;22.214;2023-10-13T02:10:12;99785.22;;;17.20;56.82
21803;BME280;18591;47.080;22.214;2023-10-13T02:12:14;99777.75;;;17.24;56.68
21803;BME280;18591;47.080;22.214;2023-10-13T02:14:18;99772.13;;;17.27;56.28
21803;BME280;18591;47.080;22.214;2023-10-13T02:16:24;99785.78;;;17.26;56.09
21803;BME280;18591;47.080;22.214;2023-10-13T02:18:28;99775.44;;;17.32;56.00
21803;BME280;18591;47.080;22.214;2023-10-13T02:20:35;99775.31;;;17.34;56.16
21803;BME280;18591;47.080;22.214;2023-10-13T02:22:45;99782.41;;;17.36;56.08
21803;BME280;18591;47.080;22.214;2023-10-13T02:24:53;99779.53;;;17.39;56.14
21803;BME280;18591;47.080;22.214;2023-10-13T02:27:04;99780.88;;;17.47;55.97
21803;BME280;18591;47.080;22.214;2023-10-13T02:29:21;99784.56;;;17.46;56.14
21803;BME280;18591;47.080;22.214;2023-10-13T02:31:23;99782.81;;;17.45;57.22
21803;BME280;18591;47.080;22.214;2023-10-13T02:33:26;99794.44;;;17.47;57.37
21803;BME280;18591;47.080;22.214;2023-10-13T02:35:32;99806.09;;;17.49;57.52
21803;BME280;18591;47.080;22.214;2023-10-13T02:37:43;99811.25;;;17.53;57.22
21803;BME280;18591;47.080;22.214;2023-10-13T02:39:46;99806.59;;;17.55;56.96
21803;BME280;18591;47.080;22.214;2023-10-13T02:41:48;99796.97;;;17.64;56.46
21803;BME280;18591;47.080;22.214;2023-10-13T02:43:52;99807.97;;;17.62;56.86
21803;BME280;18591;47.080;22.214;2023-10-13T02:45:55;99797.75;;;17.66;56.74
21803;BME280;18591;47.080;22.214;2023-10-13T02:48:00;99814.16;;;17.64;56.77
21803;BME280;18591;47.080;22.214;2023-10-13T02:50:20;99804.84;;;17.69;56.57
21803;BME280;18591;47.080;22.214;2023-10-13T02:52:26;99806.97;;;17.63;57.18
21803;BME280;18591;47.080;22.214;2023-10-13T02:54:29;99807.75;;;17.66;56.67
21803;BME280;18591;47.080;22.214;2023-10-13T02:56:41;99809.78;;;17.62;57.23
21803;BME280;18591;47.080;22.214;2023-10-13T02:58:59;99809.69;;;17.63;57.00
21803;BME280;18591;47.080;22.214;2023-10-13T03:01:08;99819.69;;;17.63;56.90
21803;BME280;18591;47.080;22.214;2023-10-13T03:03:19;99821.34;;;17.66;56.70
21803;BME280;18591;47.080;22.214;2023-10-13T03:05:22;99812.31;;;17.65;56.84
21803;BME280;18591;47.080;22.214;2023-10-13T03:07:28;99820.47;;;17.65;56.80
21803;BME280;18591;47.080;22.214;2023-10-13T03:09:31;99813.06;;;17.67;56.73
21803;BME280;18591;47.080;22.214;2023-10-13T03:11:46;99823.78;;;17.70;56.62
21803;BME280;18591;47.080;22.214;2023-10-13T03:13:52;99826.78;;;17.66;56.70
21803;BME280;18591;47.080;22.214;2023-10-13T03:15:55;99829.38;;;17.67;56.68
21803;BME280;18591;47.080;22.214;2023-10-13T03:17:57;99831.94;;;17.70;56.46
21803;BME280;18591;47.080;22.214;2023-10-13T03:20:03;99830.06;;;17.71;56.49
21803;BME280;18591;47.080;22.214;2023-10-13T03:22:10;99832.78;;;17.71;56.90
21803;BME280;18591;47.080;22.214;2023-10-13T03:24:18;99824.66;;;17.71;56.86
21803;BME280;18591;47.080;22.214;2023-10-13T03:26:25;99818.16;;;17.73;56.89
21803;BME280;18591;47.080;22.214;2023-10-13T03:28:27;99825.44;;;17.73;56.51
21803;BME280;18591;47.080;22.214;2023-10-13T03:30:36;99831.53;;;17.76;56.63
21803;BME280;18591;47.080;22.214;2023-10-13T03:32:41;99831.06;;;17.84;57.08
21803;BME280;18591;47.080;22.214;2023-10-13T03:34:56;99832.81;;;17.85;56.68
21803;BME280;18591;47.080;22.214;2023-10-13T03:37:02;99821.94;;;17.85;56.57
21803;BME280;18591;47.080;22.214;2023-10-13T03:39:15;99819.53;;;17.80;57.33
21803;BME280;18591;47.080;22.214;2023-10-13T03:41:17;99827.75;;;17.79;57.28
21803;BME280;18591;47.080;22.214;2023-10-13T03:43:26;99831.72;;;17.73;57.47
21803;BME280;18591;47.080;22.214;2023-10-13T03:45:36;99840.66;;;17.75;57.33
21803;BME280;18591;47.080;22.214;2023-10-13T03:47:41;99833.47;;;17.74;57.45
21803;BME280;18591;47.080;22.214;2023-10-13T03:49:48;99832.41;;;17.77;57.54
21803;BME280;18591;47.080;22.214;2023-10-13T03:51:53;99835.22;;;17.75;57.55
21803;BME280;18591;47.080;22.214;2023-10-13T03:53:59;99835.03;;;17.78;57.02
21803;BME280;18591;47.080;22.214;2023-10-13T03:56:10;99836.09;;;17.76;57.44
21803;BME280;18591;47.080;22.214;2023-10-13T03:58:37;99842.41;;;17.76;57.42
21803;BME280;18591;47.080;22.214;2023-10-13T04:00:48;99847.59;;;17.81;57.50
21803;BME280;18591;47.080;22.214;2023-10-13T04:02:51;99853.28;;;17.76;57.71
21803;BME280;18591;47.080;22.214;2023-10-13T04:05:14;99843.19;;;17.78;57.88
21803;BME280;18591;47.080;22.214;2023-10-13T04:07:37;99849.25;;;17.83;57.71
21803;BME280;18591;47.080;22.214;2023-10-13T04:10:02;99851.25;;;17.80;57.79
21803;BME280;18591;47.080;22.214;2023-10-13T04:12:24;99852.91;;;17.82;58.23
21803;BME280;18591;47.080;22.214;2023-10-13T04:14:45;99849.13;;;17.85;58.00
21803;BME280;18591;47.080;22.214;2023-10-13T04:16:56;99864.56;;;17.84;57.99
21803;BME280;18591;47.080;22.214;2023-10-13T04:19:03;99865.63;;;17.82;58.33
21803;BME280;18591;47.080;22.214;2023-10-13T04:21:10;99867.06;;;17.88;58.20
21803;BME280;18591;47.080;22.214;2023-10-13T04:23:33;99859.72;;;17.90;58.17
21803;BME280;18591;47.080;22.214;2023-10-13T04:25:55;99859.72;;;17.90;58.01
21803;BME280;18591;47.080;22.214;2023-10-13T04:28:13;99855.34;;;17.87;58.61
21803;BME280;18591;47.080;22.214;2023-10-13T04:30:18;99852.41;;;17.90;58.32
21803;BME280;18591;47.080;22.214;2023-10-13T04:32:27;99858.63;;;17.92;58.17
21803;BME280;18591;47.080;22.214;2023-10-13T04:34:35;99858.75;;;17.91;58.29
21803;BME280;18591;47.080;22.214;2023-10-13T04:36:41;99867.56;;;17.94;58.04
21803;BME280;18591;47.080;22.214;2023-10-13T04:38:59;99861.34;;;17.92;58.11
21803;BME280;18591;47.080;22.214;2023-10-13T04:41:02;99877.00;;;17.89;58.56
21803;BME280;18591;47.080;22.214;2023-10-13T04:43:12;99872.34;;;17.91;58.40
21803;BME280;18591;47.080;22.214;2023-10-13T04:45:35;99883.97;;;17.93;58.26
21803;BME280;18591;47.080;22.214;2023-10-13T04:47:37;99892.03;;;17.94;58.05
21803;BME280;18591;47.080;22.214;2023-10-13T04:49:59;99892.25;;;17.91;58.90
21803;BME280;18591;47.080;22.214;2023-10-13T04:52:04;99888.34;;;17.95;58.35
21803;BME280;18591;47.080;22.214;2023-10-13T04:54:13;99906.63;;;17.93;58.42
21803;BME280;18591;47.080;22.214;2023-10-13T04:56:28;99914.84;;;17.92;58.95
21803;BME280;18591;47.080;22.214;2023-10-13T04:58:48;99924.66;;;17.94;58.51
21803;BME280;18591;47.080;22.214;2023-10-13T05:01:09;99920.88;;;17.97;58.34
21803;BME280;18591;47.080;22.214;2023-10-13T05:03:27;99923.69;;;17.95;58.87
21803;BME280;18591;47.080;22.214;2023-10-13T05:05:52;99930.09;;;17.94;58.82
21803;BME280;18591;47.080;22.214;2023-10-13T05:08:32;99944.47;;;17.96;58.58
21803;BME280;18591;47.080;22.214;2023-10-13T05:10:53;99939.03;;;17.96;59.21
21803;BME280;18591;47.080;22.214;2023-10-13T05:13:14;99940.78;;;17.97;59.13
21803;BME280;18591;47.080;22.214;2023-10-13T05:15:43;99940.78;;;17.83;60.17
21803;BME280;18591;47.080;22.214;2023-10-13T05:18:04;99943.75;;;17.93;60.09
21803;BME280;18591;47.080;22.214;2023-10-13T05:20:26;99947.75;;;17.87;59.95
21803;BME280;18591;47.080;22.214;2023-10-13T05:22:47;99953.78;;;17.92;59.43
21803;BME280;18591;47.080;22.214;2023-10-13T05:25:08;99960.19;;;17.91;59.94
21803;BME280;18591;47.080;22.214;2023-10-13T05:27:29;99967.38;;;17.92;59.75
21803;BME280;18591;47.080;22.214;2023-10-13T05:29:50;99963.69;;;17.93;60.20
21803;BME280;18591;47.080;22.214;2023-10-13T05:32:11;99966.28;;;17.95;59.65
21803;BME280;18591;47.080;22.214;2023-10-13T05:34:32;99971.75;;;17.95;60.14
21803;BME280;18591;47.080;22.214;2023-10-13T05:36:53;99981.75;;;17.94;60.63
21803;BME280;18591;47.080;22.214;2023-10-13T05:39:14;99982.59;;;17.95;60.80
21803;BME280;18591;47.080;22.214;2023-10-13T05:41:35;99977.97;;;17.97;60.61
21803;BME280;18591;47.080;22.214;2023-10-13T05:43:56;99976.91;;;17.99;61.34
21803;BME280;18591;47.080;22.214;2023-10-13T05:46:17;99973.38;;;17.97;60.84
21803;BME280;18591;47.080;22.214;2023-10-13T05:48:43;99973.50;;;17.96;62.30
21803;BME280;18591;47.080;22.214;2023-10-13T05:51:01;99975.44;;;17.94;62.25
21803;BME280;18591;47.080;22.214;2023-10-13T05:53:22;99990.22;;;18.04;63.21
21803;BME280;18591;47.080;22.214;2023-10-13T05:55:42;99983.91;;;18.03;65.72
21803;BME280;18591;47.080;22.214;2023-10-13T05:58:03;99988.47;;;18.17;63.24
21803;BME280;18591;47.080;22.214;2023-10-13T06:00:24;99976.53;;;18.20;63.17
21803;BME280;18591;47.080;22.214;2023-10-13T06:02:45;99976.59;;;18.18;64.64
21803;BME280;18591;47.080;22.214;2023-10-13T06:07:28;99977.13;;;18.25;63.39
21803;BME280;18591;47.080;22.214;2023-10-13T06:09:49;99977.78;;;18.28;63.25
21803;BME280;18591;47.080;22.214;2023-10-13T06:12:11;99982.84;;;18.20;64.06
21803;BME280;18591;47.080;22.214;2023-10-13T06:14:32;99989.66;;;18.27;63.13
21803;BME280;18591;47.080;22.214;2023-10-13T06:16:53;99994.41;;;18.24;63.85
21803;BME280;18591;47.080;22.214;2023-10-13T06:19:16;100008.09;;;18.22;63.27
21803;BME280;18591;47.080;22.214;2023-10-13T06:21:37;100003.13;;;18.15;64.13
21803;BME280;18591;47.080;22.214;2023-10-13T06:23:58;100001.28;;;18.15;63.12
21803;BME280;18591;47.080;22.214;2023-10-13T06:26:19;100009.16;;;18.20;63.46
21803;BME280;18591;47.080;22.214;2023-10-13T06:28:40;100009.09;;;18.21;63.60
21803;BME280;18591;47.080;22.214;2023-10-13T06:30:53;100007.59;;;18.16;63.44
21803;BME280;18591;47.080;22.214;2023-10-13T06:32:58;99998.47;;;18.17;64.39
21803;BME280;18591;47.080;22.214;2023-10-13T06:35:02;99989.47;;;18.16;65.81
21803;BME280;18591;47.080;22.214;2023-10-13T06:37:26;99987.13;;;18.24;65.36
21803;BME280;18591;47.080;22.214;2023-10-13T06:39:32;99981.47;;;18.27;64.55
21803;BME280;18591;47.080;22.214;2023-10-13T06:41:38;99982.84;;;18.35;63.79
21803;BME280;18591;47.080;22.214;2023-10-13T06:43:42;99992.34;;;18.42;63.81
21803;BME280;18591;47.080;22.214;2023-10-13T06:45:46;100007.31;;;18.49;62.88
21803;BME280;18591;47.080;22.214;2023-10-13T06:47:59;100000.59;;;18.55;62.65
21803;BME280;18591;47.080;22.214;2023-10-13T06:50:01;100003.25;;;18.56;62.65
21803;BME280;18591;47.080;22.214;2023-10-13T06:52:05;100011.59;;;18.53;62.48
21803;BME280;18591;47.080;22.214;2023-10-13T06:54:09;100001.38;;;18.57;63.59
21803;BME280;18591;47.080;22.214;2023-10-13T06:56:15;100000.91;;;18.64;63.65
21803;BME280;18591;47.080;22.214;2023-10-13T06:58:29;100000.22;;;18.61;63.54
21803;BME280;18591;47.080;22.214;2023-10-13T07:00:33;99997.31;;;18.64;64.45
21803;BME280;18591;47.080;22.214;2023-10-13T07:02:37;100001.28;;;18.72;64.17
21803;BME280;18591;47.080;22.214;2023-10-13T07:04:40;100000.06;;;18.78;63.68
21803;BME280;18591;47.080;22.214;2023-10-13T07:06:43;100000.31;;;18.88;63.00
21803;BME280;18591;47.080;22.214;2023-10-13T07:08:52;99998.06;;;18.95;63.26
21803;BME280;18591;47.080;22.214;2023-10-13T07:10:55;99996.00;;;18.98;62.99
21803;BME280;18591;47.080;22.214;2023-10-13T07:13:21;100003.66;;;19.06;63.10
21803;BME280;18591;47.080;22.214;2023-10-13T07:15:24;99990.84;;;19.08;64.29
21803;BME280;18591;47.080;22.214;2023-10-13T07:17:29;99995.13;;;19.12;64.58
21803;BME280;18591;47.080;22.214;2023-10-13T07:19:35;99997.22;;;19.21;64.10
21803;BME280;18591;47.080;22.214;2023-10-13T07:21:47;100001.19;;;19.30;64.04
21803;BME280;18591;47.080;22.214;2023-10-13T07:23:50;99999.47;;;19.42;63.90
21803;BME280;18591;47.080;22.214;2023-10-13T07:26:05;100004.41;;;19.49;63.11
21803;BME280;18591;47.080;22.214;2023-10-13T07:28:10;99997.69;;;19.55;62.91
21803;BME280;18591;47.080;22.214;2023-10-13T07:30:13;99995.63;;;19.58;62.17
21803;BME280;18591;47.080;22.214;2023-10-13T07:32:16;100007.16;;;19.62;61.45
21803;BME280;18591;47.080;22.214;2023-10-13T07:34:26;100008.88;;;19.77;60.86
21803;BME280;18591;47.080;22.214;2023-10-13T07:36:33;100009.88;;;19.89;60.64
21803;BME280;18591;47.080;22.214;2023-10-13T07:38:42;100013.59;;;20.01;60.24
21803;BME280;18591;47.080;22.214;2023-10-13T07:40:45;100016.34;;;20.14;59.74
21803;BME280;18591;47.080;22.214;2023-10-13T07:43:05;100018.53;;;20.21;59.14
21803;BME280;18591;47.080;22.214;2023-10-13T07:45:11;100021.16;;;20.36;58.93
21803;BME280;18591;47.080;22.214;2023-10-13T07:47:14;100016.88;;;20.44;59.04
21803;BME280;18591;47.080;22.214;2023-10-13T07:49:17;100016.03;;;20.44;58.81
21803;BME280;18591;47.080;22.214;2023-10-13T07:51:23;100017.56;;;20.35;58.21
21803;BME280;18591;47.080;22.214;2023-10-13T07:53:27;100023.81;;;20.63;58.99
21803;BME280;18591;47.080;22.214;2023-10-13T07:55:36;100009.38;;;20.74;58.66
21803;BME280;18591;47.080;22.214;2023-10-13T07:57:41;100015.03;;;20.83;58.53
21803;BME280;18591;47.080;22.214;2023-10-13T07:59:57;100019.03;;;20.91;58.12
21803;BME280;18591;47.080;22.214;2023-10-13T08:02:29;100016.31;;;20.91;57.88
21803;BME280;18591;47.080;22.214;2023-10-13T08:04:50;99998.09;;;20.91;56.72
21803;BME280;18591;47.080;22.214;2023-10-13T08:06:54;100010.41;;;20.97;57.16
21803;BME280;18591;47.080;22.214;2023-10-13T08:09:09;100010.81;;;21.03;57.19
21803;BME280;18591;47.080;22.214;2023-10-13T08:11:13;100014.94;;;21.09;56.74
21803;BME280;18591;47.080;22.214;2023-10-13T08:13:25;100022.72;;;21.15;56.79
21803;BME280;18591;47.080;22.214;2023-10-13T08:15:28;100024.22;;;21.19;56.75
21803;BME280;18591;47.080;22.214;2023-10-13T08:17:34;100026.72;;;21.22;56.90
21803;BME280;18591;47.080;22.214;2023-10-13T08:19:37;100024.53;;;21.27;56.92
21803;BME280;18591;47.080;22.214;2023-10-13T08:21:44;100031.81;;;21.27;56.53
21803;BME280;18591;47.080;22.214;2023-10-13T08:24:01;100019.47;;;21.34;57.00
21803;BME280;18591;47.080;22.214;2023-10-13T08:26:09;100012.88;;;21.37;56.80
21803;BME280;18591;47.080;22.214;2023-10-13T08:28:30;100002.75;;;21.39;56.89
21803;BME280;18591;47.080;22.214;2023-10-13T08:31:04;100002.66;;;21.40;57.14
21803;BME280;18591;47.080;22.214;2023-10-13T08:33:16;100000.31;;;21.47;57.01
21803;BME280;18591;47.080;22.214;2023-10-13T08:35:20;99992.63;;;21.52;56.70
21803;BME280;18591;47.080;22.214;2023-10-13T08:37:45;99995.78;;;21.59;56.05
21803;BME280;18591;47.080;22.214;2023-10-13T08:39:55;99996.66;;;21.70;55.63
21803;BME280;18591;47.080;22.214;2023-10-13T08:42:31;99999.91;;;21.75;56.02
21803;BME280;18591;47.080;22.214;2023-10-13T08:44:44;100007.91;;;21.79;56.01
21803;BME280;18591;47.080;22.214;2023-10-13T08:46:54;100006.66;;;21.83;56.04
21803;BME280;18591;47.080;22.214;2023-10-13T08:49:07;99999.84;;;21.88;55.79
21803;BME280;18591;47.080;22.214;2023-10-13T08:51:12;99999.84;;;21.88;56.01
21803;BME280;18591;47.080;22.214;2023-10-13T08:53:33;99990.41;;;21.92;55.77
21803;BME280;18591;47.080;22.214;2023-10-13T08:56:08;99990.16;;;21.95;55.64
21803;BME280;18591;47.080;22.214;2023-10-13T08:58:20;99984.22;;;22.02;55.85
21803;BME280;18591;47.080;22.214;2023-10-13T09:00:27;99983.38;;;22.12;55.42
21803;BME280;18591;47.080;22.214;2023-10-13T09:02:35;99986.28;;;22.22;55.40
21803;BME280;18591;47.080;22.214;2023-10-13T09:05:16;99985.94;;;22.38;54.55
21803;BME280;18591;47.080;22.214;2023-10-13T09:07:46;99997.75;;;22.50;52.82
21803;BME280;18591;47.080;22.214;2023-10-13T09:10:04;99981.56;;;22.58;52.84
21803;BME280;18591;47.080;22.214;2023-10-13T09:12:29;99983.56;;;22.67;52.10
21803;BME280;18591;47.080;22.214;2023-10-13T09:14:36;99981.06;;;22.75;52.13
21803;BME280;18591;47.080;22.214;2023-10-13T09:16:50;99980.81;;;22.90;51.77
21803;BME280;18591;47.080;22.214;2023-10-13T09:19:09;99975.22;;;23.02;51.74
21803;BME280;18591;47.080;22.214;2023-10-13T09:21:15;99971.47;;;23.15;51.01
21803;BME280;18591;47.080;22.214;2023-10-13T09:23:46;99972.81;;;23.20;50.07
21803;BME280;18591;47.080;22.214;2023-10-13T09:25:51;99975.88;;;23.27;49.79
21803;BME280;18591;47.080;22.214;2023-10-13T09:28:00;99982.97;;;23.30;50.38
21803;BME280;18591;47.080;22.214;2023-10-13T09:30:05;99982.22;;;23.39;50.40
21803;BME280;18591;47.080;22.214;2023-10-13T09:32:24;99976.84;;;23.48;49.79
21803;BME280;18591;47.080;22.214;2023-10-13T09:34:27;99974.41;;;23.55;50.25
21803;BME280;18591;47.080;22.214;2023-10-13T09:36:37;99968.94;;;23.55;48.92
21803;BME280;18591;47.080;22.214;2023-10-13T09:38:40;99970.69;;;23.56;49.39
21803;BME280;18591;47.080;22.214;2023-10-13T09:40:43;99964.19;;;23.57;49.63
21803;BME280;18591;47.080;22.214;2023-10-13T09:42:52;99975.53;;;23.64;49.87
21803;BME280;18591;47.080;22.214;2023-10-13T09:44:57;99966.75;;;23.70;49.49
21803;BME280;18591;47.080;22.214;2023-10-13T09:47:10;99972.88;;;23.74;49.10
21803;BME280;18591;47.080;22.214;2023-10-13T09:49:22;99967.00;;;23.78;49.24
21803;BME280;18591;47.080;22.214;2023-10-13T09:51:47;99958.25;;;23.84;49.94
21803;BME280;18591;47.080;22.214;2023-10-13T09:53:52;99962.16;;;23.91;49.93
21803;BME280;18591;47.080;22.214;2023-10-13T09:56:25;99957.50;;;24.03;49.98
21803;BME280;18591;47.080;22.214;2023-10-13T09:58:30;99956.28;;;24.17;50.09
21803;BME280;18591;47.080;22.214;2023-10-13T10:00:46;99954.03;;;24.32;49.46
21803;BME280;18591;47.080;22.214;2023-10-13T10:02:52;99955.13;;;24.41;49.44
21803;BME280;18591;47.080;22.214;2023-10-13T10:05:00;99950.97;;;24.46;49.45
21803;BME280;18591;47.080;22.214;2023-10-13T10:07:26;99948.69;;;24.51;49.26
21803;BME280;18591;47.080;22.214;2023-10-13T10:09:34;99949.72;;;24.60;49.22
21803;BME280;18591;47.080;22.214;2023-10-13T10:16:50;99945.88;;;24.72;47.61
21803;BME280;18591;47.080;22.214;2023-10-13T10:18:59;99938.94;;;24.78;47.36
21803;BME280;18591;47.080;22.214;2023-10-13T10:21:05;99950.09;;;24.86;47.70
21803;BME280;18591;47.080;22.214;2023-10-13T10:23:26;99954.44;;;24.89;47.09
21803;BME280;18591;47.080;22.214;2023-10-13T10:25:34;99947.78;;;24.91;47.21
21803;BME280;18591;47.080;22.214;2023-10-13T10:27:37;99952.00;;;24.95;47.68
21803;BME280;18591;47.080;22.214;2023-10-13T10:29:52;99945.38;;;24.98;47.73
21803;BME280;18591;47.080;22.214;2023-10-13T10:31:55;99929.75;;;24.98;47.25
21803;BME280;18591;47.080;22.214;2023-10-13T10:33:57;99932.34;;;25.00;47.57
21803;BME280;18591;47.080;22.214;2023-10-13T10:36:00;99925.09;;;24.99;47.52
21803;BME280;18591;47.080;22.214;2023-10-13T10:40:26;99928.16;;;25.06;47.39
21803;BME280;18591;47.080;22.214;2023-10-13T10:42:58;99933.38;;;25.09;47.57
21803;BME280;18591;47.080;22.214;2023-10-13T10:45:11;99928.91;;;25.08;47.58
21803;BME280;18591;47.080;22.214;2023-10-13T10:47:15;99929.88;;;25.07;47.49
21803;BME280;18591;47.080;22.214;2023-10-13T10:49:37;99921.94;;;25.04;47.55
21803;BME280;18591;47.080;22.214;2023-10-13T10:51:44;99925.84;;;25.01;47.86
21803;BME280;18591;47.080;22.214;2023-10-13T10:53:48;99927.31;;;25.05;47.79
21803;BME280;18591;47.080;22.214;2023-10-13T10:55:52;99923.81;;;25.03;47.76
21803;BME280;18591;47.080;22.214;2023-10-13T10:57:59;99922.81;;;25.04;47.80
21803;BME280;18591;47.080;22.214;2023-10-13T11:00:04;99924.41;;;25.07;47.87
21803;BME280;18591;47.080;22.214;2023-10-13T11:02:30;99929.16;;;25.05;47.62
21803;BME280;18591;47.080;22.214;2023-10-13T11:04:34;99920.91;;;25.05;47.71
21803;BME280;18591;47.080;22.214;2023-10-13T11:06:37;99926.41;;;25.05;47.72
21803;BME280;18591;47.080;22.214;2023-10-13T11:08:45;99932.63;;;25.07;47.40
21803;BME280;18591;47.080;22.214;2023-10-13T11:11:29;99929.59;;;25.10;47.36
21803;BME280;18591;47.080;22.214;2023-10-13T11:13:45;99919.94;;;25.15;47.84
21803;BME280;18591;47.080;22.214;2023-10-13T11:15:57;99923.59;;;25.26;47.79
21803;BME280;18591;47.080;22.214;2023-10-13T11:17:59;99925.75;;;25.32;47.74
21803;BME280;18591;47.080;22.214;2023-10-13T11:20:11;99920.84;;;25.35;47.74
21803;BME280;18591;47.080;22.214;2023-10-13T11:22:28;99919.25;;;25.42;47.48
21803;BME280;18591;47.080;22.214;2023-10-13T11:24:44;99918.69;;;25.49;47.62
21803;BME280;18591;47.080;22.214;2023-10-13T11:26:48;99923.16;;;25.50;47.50
21803;BME280;18591;47.080;22.214;2023-10-13T11:28:54;99905.38;;;25.54;47.07
21803;BME280;18591;47.080;22.214;2023-10-13T11:30:58;99920.72;;;25.56;47.15
21803;BME280;18591;47.080;22.214;2023-10-13T11:33:03;99921.28;;;25.60;47.16